Time;durP1;ratioP1;P1;durP2;ratioP2;P2;SDS_P1;SDS_P2;PMS_P1;PMS_P2;Temp;Humidity;BMP_temperature;BMP_pressure;BME280_temperature;BME280_humidity;BME280_pressure;Samples;Min_cycle;Max_cycle;Signal;HPM_P1;HPM_P2
2022/12/07 00:01:24;;;;;;;8.77;8.18;;;;;;;;;;5037979;28;19924;-59
2022/12/07 00:03:52;;;;;;;10.35;9.65;;;;;;;;;;5033174;28;20051;-59
2022/12/07 00:06:19;;;;;;;10.50;9.80;;;;;;;;;;5036410;28;20151;-59
2022/12/07 00:08:45;;;;;;;10.35;9.68;;;;;;;;;;5034499;28;20412;-60
2022/12/07 00:11:16;;;;;;;10.23;9.52;;;;;;;;;;5035262;28;20052;-59
2022/12/07 00:13:42;;;;;;;10.20;9.50;;;;;;;;;;5037454;28;20040;-59
2022/12/07 00:16:16;;;;;;;9.88;9.18;;;;;;;;;;5036287;28;20040;-59
2022/12/07 00:18:42;;;;;;;9.32;8.63;;;;;;;;;;5032520;28;20045;-59
2022/12/07 00:21:22;;;;;;;9.85;9.15;;;;;;;;;;5037109;28;20040;-60
2022/12/07 00:23:49;;;;;;;11.68;10.65;;;;;;;;;;5037015;28;20044;-59
2022/12/07 00:26:18;;;;;;;10.65;9.93;;;;;;;;;;5044063;28;20041;-59
2022/12/07 00:29:05;;;;;;;10.70;9.75;;;;;;;;;;5035761;28;20078;-59
2022/12/07 00:31:34;;;;;;;11.65;10.70;;;;;;;;;;5036385;28;20091;-60
2022/12/07 00:34:01;;;;;;;9.30;8.60;;;;;;;;;;5034462;28;20125;-59
2022/12/07 00:36:26;;;;;;;10.43;9.73;;;;;;;;;;5035674;28;20040;-59
2022/12/07 00:38:52;;;;;;;9.50;8.90;;;;;;;;;;5033473;28;20256;-59
2022/12/07 00:41:21;;;;;;;9.50;8.90;;;;;;;;;;5036151;28;20103;-59
2022/12/07 00:43:47;;;;;;;9.52;8.85;;;;;;;;;;5033243;28;20086;-59
2022/12/07 00:46:14;;;;;;;8.40;7.80;;;;;;;;;;5031345;28;20068;-59
2022/12/07 00:48:39;;;;;;;9.05;8.45;;;;;;;;;;5033485;28;20390;-60
2022/12/07 00:51:05;;;;;;;9.85;9.00;;;;;;;;;;5035659;28;20098;-59
2022/12/07 00:53:30;;;;;;;8.40;7.80;;;;;;;;;;5033903;28;20405;-59
2022/12/07 00:55:56;;;;;;;10.38;9.57;;;;;;;;;;5028459;28;20488;-60
2022/12/07 00:58:22;;;;;;;9.00;8.40;;;;;;;;;;5034498;28;20047;-59
2022/12/07 01:00:48;;;;;;;9.23;8.52;;;;;;;;;;5043249;28;20112;-59
2022/12/07 01:03:15;;;;;;;9.00;8.40;;;;;;;;;;5034928;28;20143;-59
2022/12/07 01:05:49;;;;;;;8.32;7.80;;;;;;;;;;5035927;28;20041;-60
2022/12/07 01:08:14;;;;;;;10.27;9.43;;;;;;;;;;5036388;28;20557;-59
2022/12/07 01:10:40;;;;;;;10.55;9.85;;;;;;;;;;5033360;28;20036;-59
2022/12/07 01:13:05;;;;;;;9.45;8.73;;;;;;;;;;5034124;28;20034;-59
2022/12/07 01:15:30;;;;;;;9.35;8.65;;;;;;;;;;5034926;28;20029;-59
2022/12/07 01:17:55;;;;;;;10.48;9.57;;;;;;;;;;5032462;28;20037;-59
2022/12/07 01:20:21;;;;;;;10.43;9.63;;;;;;;;;;5033340;28;20029;-59
2022/12/07 01:22:46;;;;;;;9.73;9.13;;;;;;;;;;5032125;28;20044;-59
2022/12/07 01:25:12;;;;;;;10.00;9.30;;;;;;;;;;5034549;28;20036;-59
2022/12/07 01:27:37;;;;;;;9.85;9.07;;;;;;;;;;5037325;28;20032;-59
2022/12/07 01:30:06;;;;;;;9.30;8.70;;;;;;;;;;5031711;28;20044;-59
2022/12/07 01:32:32;;;;;;;9.32;8.73;;;;;;;;;;5036449;28;20026;-58
2022/12/07 01:34:57;;;;;;;9.57;8.85;;;;;;;;;;5033880;28;20029;-59
2022/12/07 01:37:23;;;;;;;9.18;8.57;;;;;;;;;;5035530;28;20037;-59
2022/12/07 01:39:50;;;;;;;9.80;9.05;;;;;;;;;;5033575;28;20034;-59
2022/12/07 01:42:18;;;;;;;9.15;8.45;;;;;;;;;;5037065;28;20048;-59
2022/12/07 01:45:17;;;;;;;9.02;8.35;;;;;;;;;;5030811;28;20029;-60
2022/12/07 01:47:55;;;;;;;9.15;8.55;;;;;;;;;;5031860;28;20041;-60
2022/12/07 01:50:23;;;;;;;9.00;8.30;;;;;;;;;;5035256;28;20271;-59
2022/12/07 01:52:51;;;;;;;9.05;8.45;;;;;;;;;;5031159;28;20029;-59
2022/12/07 01:55:17;;;;;;;9.50;8.80;;;;;;;;;;5032995;28;20064;-60
2022/12/07 01:57:47;;;;;;;9.32;8.63;;;;;;;;;;5034734;28;20192;-59
2022/12/07 02:00:13;;;;;;;9.38;8.68;;;;;;;;;;5033810;28;20487;-59
2022/12/07 02:03:04;;;;;;;9.13;8.52;;;;;;;;;;5033298;28;20374;-59
2022/12/07 02:05:30;;;;;;;8.67;8.07;;;;;;;;;;5033997;28;20332;-59
2022/12/07 02:07:57;;;;;;;9.63;8.98;;;;;;;;;;5032304;28;20462;-59
2022/12/07 02:10:27;;;;;;;10.57;9.77;;;;;;;;;;5032743;28;20645;-59
2022/12/07 02:13:01;;;;;;;10.43;9.73;;;;;;;;;;5033851;28;20466;-59
2022/12/07 02:15:54;;;;;;;9.50;8.80;;;;;;;;;;5033385;28;20024;-59
2022/12/07 02:18:34;;;;;;;9.85;9.05;;;;;;;;;;5030832;28;20680;-59
2022/12/07 02:21:21;;;;;;;9.00;8.40;;;;;;;;;;5031045;28;20098;-59
2022/12/07 02:24:12;;;;;;;8.82;8.20;;;;;;;;;;5033183;28;20043;-59
2022/12/07 02:26:55;;;;;;;8.48;7.95;;;;;;;;;;5034885;28;20036;-59
2022/12/07 02:29:24;;;;;;;8.85;8.25;;;;;;;;;;5033095;28;20040;-59
2022/12/07 02:32:12;;;;;;;9.13;8.52;;;;;;;;;;5032767;28;20698;-59
2022/12/07 02:35:11;;;;;;;9.40;8.75;;;;;;;;;;5031881;28;20230;-59
2022/12/07 02:37:47;;;;;;;9.02;8.43;;;;;;;;;;5021847;28;20065;-59
2022/12/07 02:40:28;;;;;;;8.25;7.70;;;;;;;;;;5031796;28;20122;-59
2022/12/07 02:43:02;;;;;;;10.23;9.50;;;;;;;;;;5032685;28;20478;-59
2022/12/07 02:45:30;;;;;;;8.40;7.90;;;;;;;;;;5031893;28;20045;-59
2022/12/07 02:47:59;;;;;;;10.57;9.45;;;;;;;;;;5033826;28;20387;-59
2022/12/07 02:50:24;;;;;;;10.57;9.80;;;;;;;;;;5033954;28;20399;-59
2022/12/07 02:52:50;;;;;;;9.55;8.95;;;;;;;;;;5030038;28;20120;-60
2022/12/07 02:55:18;;;;;;;11.23;10.45;;;;;;;;;;5035082;28;20033;-59
2022/12/07 02:58:12;;;;;;;11.13;10.43;;;;;;;;;;5030562;28;20036;-59
2022/12/07 03:00:51;;;;;;;10.30;9.63;;;;;;;;;;5032567;28;20034;-59
2022/12/07 03:03:16;;;;;;;10.32;9.57;;;;;;;;;;5034135;28;20466;-59
2022/12/07 03:06:06;;;;;;;8.88;8.27;;;;;;;;;;5032458;28;20048;-60
2022/12/07 03:08:50;;;;;;;10.10;9.48;;;;;;;;;;5031351;28;20336;-59
2022/12/07 03:11:44;;;;;;;10.35;9.65;;;;;;;;;;5034582;28;20124;-60
2022/12/07 03:14:29;;;;;;;8.90;8.27;;;;;;;;;;5028688;28;20053;-59
2022/12/07 03:17:16;;;;;;;10.10;9.40;;;;;;;;;;5034653;28;20336;-59
2022/12/07 03:19:44;;;;;;;9.38;8.77;;;;;;;;;;5031472;28;20104;-60
2022/12/07 03:22:12;;;;;;;9.88;9.25;;;;;;;;;;5033402;28;20068;-59
2022/12/07 03:24:56;;;;;;;9.23;8.63;;;;;;;;;;5033449;28;20048;-59
2022/12/07 03:27:27;;;;;;;9.43;8.75;;;;;;;;;;5033555;28;20026;-59
2022/12/07 03:30:08;;;;;;;9.85;9.15;;;;;;;;;;5028974;28;20094;-59
2022/12/07 03:33:05;;;;;;;9.30;8.70;;;;;;;;;;5033504;28;20021;-59
2022/12/07 03:36:00;;;;;;;9.68;9.07;;;;;;;;;;5033157;28;20411;-59
2022/12/07 03:38:33;;;;;;;8.73;8.15;;;;;;;;;;5030421;28;20424;-59
2022/12/07 03:41:09;;;;;;;9.40;8.77;;;;;;;;;;5035525;28;20363;-59
2022/12/07 03:43:36;;;;;;;9.63;9.02;;;;;;;;;;5032692;28;20099;-59
2022/12/07 03:46:27;;;;;;;11.13;10.32;;;;;;;;;;5030018;28;20041;-60
2022/12/07 03:49:10;;;;;;;10.73;9.93;;;;;;;;;;5029031;28;20033;-60
2022/12/07 03:51:42;;;;;;;9.50;8.80;;;;;;;;;;5033140;28;20027;-59
2022/12/07 03:54:15;;;;;;;8.07;7.57;;;;;;;;;;5028496;28;20457;-59
2022/12/07 03:56:43;;;;;;;10.07;9.48;;;;;;;;;;5031387;28;20045;-59
2022/12/07 03:59:10;;;;;;;10.32;9.63;;;;;;;;;;5031323;28;20191;-59
2022/12/07 04:01:36;;;;;;;9.38;8.77;;;;;;;;;;5033025;28;20021;-59
2022/12/07 04:04:01;;;;;;;8.93;8.32;;;;;;;;;;5032709;28;20040;-60
2022/12/07 04:06:26;;;;;;;10.00;9.30;;;;;;;;;;5031171;28;20383;-60
2022/12/07 04:08:52;;;;;;;9.65;8.95;;;;;;;;;;5030642;28;20025;-60
2022/12/07 04:11:17;;;;;;;9.05;8.45;;;;;;;;;;5033165;28;20047;-60
2022/12/07 04:16:26;;;;;;;9.85;9.23;;;;;;;;;;5030428;28;20026;-60
2022/12/07 04:18:51;;;;;;;10.43;9.73;;;;;;;;;;5031728;28;20520;-60
2022/12/07 04:21:17;;;;;;;10.55;9.73;;;;;;;;;;5032901;28;20412;-60
2022/12/07 04:23:42;;;;;;;10.50;9.80;;;;;;;;;;5030736;28;20083;-60
2022/12/07 04:26:07;;;;;;;9.80;9.20;;;;;;;;;;5030810;28;20052;-60
2022/12/07 04:28:33;;;;;;;9.35;8.75;;;;;;;;;;5033027;28;20108;-60
2022/12/07 04:30:58;;;;;;;9.93;9.23;;;;;;;;;;5031281;28;20506;-60
2022/12/07 04:33:24;;;;;;;9.40;8.80;;;;;;;;;;5036970;28;20094;-60
2022/12/07 04:35:49;;;;;;;10.35;9.60;;;;;;;;;;5036448;28;20041;-60
2022/12/07 04:38:14;;;;;;;10.45;9.75;;;;;;;;;;5033145;28;20106;-60
2022/12/07 04:40:40;;;;;;;10.52;9.75;;;;;;;;;;5032264;28;20140;-60
2022/12/07 04:43:05;;;;;;;10.10;9.43;;;;;;;;;;5037702;28;20026;-59
2022/12/07 04:45:30;;;;;;;10.63;9.93;;;;;;;;;;5034664;28;20029;-57
2022/12/07 04:47:56;;;;;;;9.20;8.60;;;;;;;;;;5036346;28;20029;-57
2022/12/07 04:50:21;;;;;;;11.45;10.68;;;;;;;;;;5032875;28;20036;-57
2022/12/07 04:52:47;;;;;;;10.13;9.43;;;;;;;;;;5034919;28;20040;-57
2022/12/07 04:55:12;;;;;;;9.63;9.02;;;;;;;;;;5034636;28;20037;-59
2022/12/07 04:57:37;;;;;;;10.25;9.45;;;;;;;;;;5035009;28;20478;-60
2022/12/07 05:00:03;;;;;;;10.35;9.70;;;;;;;;;;5035899;28;20037;-60
2022/12/07 05:02:28;;;;;;;10.80;10.10;;;;;;;;;;5039468;28;20025;-60
2022/12/07 05:04:54;;;;;;;9.70;9.00;;;;;;;;;;5034952;28;20538;-60
2022/12/07 05:07:19;;;;;;;10.02;9.35;;;;;;;;;;5035819;28;20087;-60
2022/12/07 05:09:45;;;;;;;9.65;8.95;;;;;;;;;;5034354;28;20044;-59
2022/12/07 05:12:10;;;;;;;10.13;9.43;;;;;;;;;;5031294;28;20040;-59
2022/12/07 05:14:35;;;;;;;9.50;8.88;;;;;;;;;;5033446;28;20029;-60
2022/12/07 05:17:01;;;;;;;10.65;9.95;;;;;;;;;;5032523;28;20648;-59
2022/12/07 05:19:26;;;;;;;10.10;9.40;;;;;;;;;;5033129;28;20117;-61
2022/12/07 05:21:51;;;;;;;9.93;9.23;;;;;;;;;;5036016;28;20124;-60
2022/12/07 05:24:17;;;;;;;10.63;9.93;;;;;;;;;;5034070;28;20064;-60
2022/12/07 05:26:43;;;;;;;11.35;10.55;;;;;;;;;;5033521;28;20063;-60
2022/12/07 05:29:16;;;;;;;8.82;8.25;;;;;;;;;;5033909;28;20062;-59
2022/12/07 05:31:43;;;;;;;9.63;9.02;;;;;;;;;;5034826;28;20079;-60
2022/12/07 05:34:09;;;;;;;10.20;9.50;;;;;;;;;;5032949;28;20063;-59
2022/12/07 05:36:34;;;;;;;9.07;8.48;;;;;;;;;;5034139;28;20454;-60
2022/12/07 05:39:00;;;;;;;10.57;9.88;;;;;;;;;;5034846;28;20029;-60
2022/12/07 05:44:09;;;;;;;10.50;9.80;;;;;;;;;;5033409;28;20037;-60
2022/12/07 05:46:34;;;;;;;9.60;8.90;;;;;;;;;;5032945;28;20034;-60
2022/12/07 05:49:01;;;;;;;9.27;8.68;;;;;;;;;;5033585;28;20068;-59
2022/12/07 05:51:26;;;;;;;8.75;8.15;;;;;;;;;;5034988;28;20043;-59
2022/12/07 05:53:52;;;;;;;9.85;9.25;;;;;;;;;;5034849;28;20454;-61
2022/12/07 05:56:17;;;;;;;10.55;9.85;;;;;;;;;;5032545;28;20041;-60
2022/12/07 06:01:27;;;;;;;9.00;8.40;;;;;;;;;;5041665;28;20037;-60
2022/12/07 06:03:52;;;;;;;9.35;8.75;;;;;;;;;;5034053;28;20029;-59
2022/12/07 06:06:17;;;;;;;10.35;9.68;;;;;;;;;;5030690;28;20037;-59
2022/12/07 06:08:43;;;;;;;9.27;8.68;;;;;;;;;;5034138;28;20030;-58
2022/12/07 06:13:52;;;;;;;9.00;8.40;;;;;;;;;;5034516;28;20036;-59
2022/12/07 06:16:18;;;;;;;9.75;9.15;;;;;;;;;;5032674;28;20033;-59
2022/12/07 06:18:43;;;;;;;9.93;9.25;;;;;;;;;;5032960;28;20071;-60
2022/12/07 06:21:09;;;;;;;11.52;10.60;;;;;;;;;;5030848;28;20148;-60
2022/12/07 06:23:34;;;;;;;9.13;8.52;;;;;;;;;;5033443;28;20470;-60
2022/12/07 06:25:59;;;;;;;10.07;9.38;;;;;;;;;;5032220;28;20033;-60
2022/12/07 06:28:25;;;;;;;9.63;9.00;;;;;;;;;;5038106;28;20538;-59
2022/12/07 06:30:58;;;;;;;10.23;9.52;;;;;;;;;;5031775;28;20040;-59
2022/12/07 06:33:24;;;;;;;9.88;9.18;;;;;;;;;;5033062;28;20143;-59
2022/12/07 06:35:49;;;;;;;9.02;8.32;;;;;;;;;;5033016;28;20037;-59
2022/12/07 06:38:14;;;;;;;9.23;8.57;;;;;;;;;;5031355;28;20044;-59
2022/12/07 06:40:40;;;;;;;9.52;8.85;;;;;;;;;;5032128;28;20049;-59
2022/12/07 06:43:05;;;;;;;10.85;10.15;;;;;;;;;;5032756;28;20094;-59
2022/12/07 06:45:30;;;;;;;10.43;9.73;;;;;;;;;;5033727;28;20037;-59
2022/12/07 06:47:56;;;;;;;9.35;8.73;;;;;;;;;;5034447;28;20473;-59
2022/12/07 06:50:21;;;;;;;10.18;9.50;;;;;;;;;;5032956;28;20048;-60
2022/12/07 06:52:46;;;;;;;10.43;9.73;;;;;;;;;;5033870;28;20351;-59
2022/12/07 06:55:12;;;;;;;10.85;9.98;;;;;;;;;;5031014;28;20340;-59
2022/12/07 06:57:37;;;;;;;9.85;9.15;;;;;;;;;;5032874;28;20129;-60
2022/12/07 07:00:03;;;;;;;10.43;9.65;;;;;;;;;;5031962;28;20450;-59
2022/12/07 07:02:28;;;;;;;9.43;8.82;;;;;;;;;;5032904;28;20173;-60
2022/12/07 07:04:54;;;;;;;9.90;9.30;;;;;;;;;;5031902;28;20366;-59
2022/12/07 07:07:19;;;;;;;8.98;8.38;;;;;;;;;;5030989;28;20562;-60
2022/12/07 07:09:44;;;;;;;10.32;9.60;;;;;;;;;;5032917;28;20083;-59
2022/12/07 07:12:10;;;;;;;9.13;8.52;;;;;;;;;;5030937;28;20040;-59
2022/12/07 07:14:36;;;;;;;9.88;9.18;;;;;;;;;;5033227;28;20133;-59
2022/12/07 07:17:01;;;;;;;10.18;9.48;;;;;;;;;;5033196;28;20040;-59
2022/12/07 07:19:27;;;;;;;10.80;10.10;;;;;;;;;;5032456;28;20029;-59
2022/12/07 07:21:52;;;;;;;10.45;9.75;;;;;;;;;;5031809;28;20078;-58
2022/12/07 07:24:17;;;;;;;10.70;9.90;;;;;;;;;;5033313;28;20029;-59
2022/12/07 07:26:43;;;;;;;10.05;9.35;;;;;;;;;;5033416;28;20037;-58
2022/12/07 07:29:08;;;;;;;8.82;8.23;;;;;;;;;;5030249;28;20086;-58
2022/12/07 07:31:35;;;;;;;9.38;8.77;;;;;;;;;;5030887;28;20175;-59
2022/12/07 07:34:00;;;;;;;10.60;9.90;;;;;;;;;;5031911;28;20468;-59
2022/12/07 07:36:26;;;;;;;9.90;9.20;;;;;;;;;;5034121;28;20120;-59
2022/12/07 07:38:51;;;;;;;9.15;8.55;;;;;;;;;;5030539;28;20029;-59
2022/12/07 07:41:16;;;;;;;10.00;9.30;;;;;;;;;;5031486;28;20124;-58
2022/12/07 07:43:42;;;;;;;9.77;9.07;;;;;;;;;;5029364;28;20037;-58
2022/12/07 07:46:07;;;;;;;10.63;9.93;;;;;;;;;;5031046;28;20071;-59
2022/12/07 07:48:33;;;;;;;10.48;9.68;;;;;;;;;;5031891;28;20033;-58
2022/12/07 07:50:58;;;;;;;10.57;9.88;;;;;;;;;;5030587;28;20029;-58
2022/12/07 07:53:23;;;;;;;10.15;9.45;;;;;;;;;;5030994;28;20041;-58
2022/12/07 07:55:55;;;;;;;12.05;11.07;;;;;;;;;;5029455;28;20037;-59
2022/12/07 07:58:20;;;;;;;10.25;9.55;;;;;;;;;;5037065;28;20144;-59
2022/12/07 08:00:46;;;;;;;10.90;10.18;;;;;;;;;;5029122;28;20120;-59
2022/12/07 08:03:11;;;;;;;13.00;11.88;;;;;;;;;;5030828;28;20514;-58
2022/12/07 08:05:37;;;;;;;10.70;10.00;;;;;;;;;;5028936;28;20033;-58
2022/12/07 08:08:03;;;;;;;10.85;10.10;;;;;;;;;;5034734;28;20475;-59
2022/12/07 08:10:28;;;;;;;10.20;9.55;;;;;;;;;;5033666;28;20629;-58
2022/12/07 08:13:13;;;;;;;10.65;9.95;;;;;;;;;;5032623;28;20037;-58
2022/12/07 08:15:41;;;;;;;12.25;11.43;;;;;;;;;;5038242;28;20037;-58
2022/12/07 08:18:06;;;;;;;11.45;10.65;;;;;;;;;;5034775;28;20040;-58
2022/12/07 08:20:32;;;;;;;10.10;9.43;;;;;;;;;;5034458;28;20064;-58
2022/12/07 08:22:58;;;;;;;11.70;10.82;;;;;;;;;;5035310;28;20072;-58
2022/12/07 08:25:24;;;;;;;11.23;10.43;;;;;;;;;;5034182;28;20072;-59
2022/12/07 08:27:50;;;;;;;12.65;11.65;;;;;;;;;;5033762;28;20028;-59
2022/12/07 08:30:16;;;;;;;11.55;10.65;;;;;;;;;;5030224;28;20033;-58
2022/12/07 08:32:41;;;;;;;11.90;10.80;;;;;;;;;;5033354;28;20422;-59
2022/12/07 08:35:07;;;;;;;11.30;10.60;;;;;;;;;;5035303;28;20045;-58
2022/12/07 08:37:33;;;;;;;10.40;9.80;;;;;;;;;;5033899;28;20128;-59
2022/12/07 08:39:58;;;;;;;11.82;10.95;;;;;;;;;;5033824;28;20535;-59
2022/12/07 08:42:29;;;;;;;10.63;9.93;;;;;;;;;;5034207;28;20402;-58
2022/12/07 08:44:54;;;;;;;11.13;10.43;;;;;;;;;;5035266;28;20029;-59
2022/12/07 08:47:20;;;;;;;10.23;9.52;;;;;;;;;;5033709;28;20045;-58
2022/12/07 08:49:49;;;;;;;10.93;10.23;;;;;;;;;;5040673;28;20087;-57
2022/12/07 08:52:15;;;;;;;12.10;11.30;;;;;;;;;;5035108;28;20506;-58
2022/12/07 08:54:42;;;;;;;11.13;10.43;;;;;;;;;;5035162;28;20088;-57
2022/12/07 08:57:09;;;;;;;10.35;9.65;;;;;;;;;;5035505;28;20048;-57
2022/12/07 08:59:35;;;;;;;11.90;11.20;;;;;;;;;;5033938;28;20037;-57
2022/12/07 09:02:01;;;;;;;12.45;11.65;;;;;;;;;;5033350;28;20048;-57
2022/12/07 09:04:26;;;;;;;10.25;9.63;;;;;;;;;;5034979;28;20029;-56
2022/12/07 09:06:53;;;;;;;11.00;10.30;;;;;;;;;;5034482;28;20033;-58
2022/12/07 09:09:18;;;;;;;12.13;11.23;;;;;;;;;;5031548;28;20036;-58
2022/12/07 09:11:45;;;;;;;11.57;10.85;;;;;;;;;;5038283;28;20040;-58
2022/12/07 09:14:10;;;;;;;11.10;10.40;;;;;;;;;;5034695;28;20053;-57
2022/12/07 09:16:36;;;;;;;10.20;9.50;;;;;;;;;;5033872;28;20133;-58
2022/12/07 09:19:01;;;;;;;10.88;10.18;;;;;;;;;;5032992;28;20048;-57
2022/12/07 09:21:26;;;;;;;10.82;10.13;;;;;;;;;;5033001;28;20052;-56
2022/12/07 09:23:52;;;;;;;10.10;9.48;;;;;;;;;;5029748;28;20044;-58
2022/12/07 09:26:17;;;;;;;11.48;10.68;;;;;;;;;;5034760;28;20115;-57
2022/12/07 09:28:42;;;;;;;11.25;10.35;;;;;;;;;;5030040;28;20044;-57
2022/12/07 09:31:08;;;;;;;11.45;10.65;;;;;;;;;;5034405;28;20033;-57
2022/12/07 09:33:33;;;;;;;11.65;10.95;;;;;;;;;;5032797;28;20033;-57
2022/12/07 09:35:59;;;;;;;10.30;9.60;;;;;;;;;;5030596;28;20040;-57
2022/12/07 09:38:26;;;;;;;10.82;10.07;;;;;;;;;;5031493;28;20040;-57
2022/12/07 09:40:51;;;;;;;12.15;11.27;;;;;;;;;;5035278;28;20025;-56
2022/12/07 09:43:20;;;;;;;10.90;10.07;;;;;;;;;;5033104;28;20465;-57
2022/12/07 09:45:48;;;;;;;10.38;9.68;;;;;;;;;;5033154;28;20085;-58
2022/12/07 09:48:19;;;;;;;10.60;9.90;;;;;;;;;;5016254;28;20037;-58
2022/12/07 09:50:46;;;;;;;11.73;11.02;;;;;;;;;;5032121;28;20033;-58
2022/12/07 09:53:23;;;;;;;10.77;10.02;;;;;;;;;;5029684;28;20036;-57
2022/12/07 09:55:48;;;;;;;11.95;11.15;;;;;;;;;;5030779;28;20056;-56
2022/12/07 09:58:22;;;;;;;10.82;10.13;;;;;;;;;;5028288;28;20026;-55
2022/12/07 10:00:52;;;;;;;11.02;10.32;;;;;;;;;;5031370;28;20044;-56
2022/12/07 10:03:17;;;;;;;10.82;10.13;;;;;;;;;;5028499;28;20029;-58
2022/12/07 10:05:48;;;;;;;11.43;10.73;;;;;;;;;;5031280;28;20600;-57
2022/12/07 10:08:15;;;;;;;11.57;10.80;;;;;;;;;;5029548;28;20552;-58
2022/12/07 10:10:41;;;;;;;10.05;9.35;;;;;;;;;;5033082;28;20440;-58
2022/12/07 10:13:08;;;;;;;11.32;10.63;;;;;;;;;;5031184;28;20116;-56
2022/12/07 10:15:44;;;;;;;11.50;10.70;;;;;;;;;;5031709;28;20033;-58
2022/12/07 10:18:24;;;;;;;12.90;11.93;;;;;;;;;;5030496;28;20087;-57
2022/12/07 10:21:04;;;;;;;11.50;10.80;;;;;;;;;;5032393;28;20037;-57
2022/12/07 10:23:29;;;;;;;11.10;10.30;;;;;;;;;;5031760;28;20043;-56
2022/12/07 10:25:54;;;;;;;12.15;11.35;;;;;;;;;;5031066;28;20029;-53
2022/12/07 10:28:21;;;;;;;11.48;10.75;;;;;;;;;;5030738;28;20056;-54
2022/12/07 10:30:59;;;;;;;10.32;9.63;;;;;;;;;;5033160;28;20040;-57
2022/12/07 10:33:34;;;;;;;10.30;9.60;;;;;;;;;;5029347;28;20047;-57
2022/12/07 10:36:09;;;;;;;11.52;10.80;;;;;;;;;;5032084;28;20122;-57
2022/12/07 10:38:51;;;;;;;12.80;11.80;;;;;;;;;;5031957;28;20673;-57
2022/12/07 10:41:18;;;;;;;10.85;10.05;;;;;;;;;;5032418;28;20677;-57
2022/12/07 10:43:49;;;;;;;11.13;10.43;;;;;;;;;;5032212;28;20057;-58
2022/12/07 10:46:23;;;;;;;11.07;10.38;;;;;;;;;;5032501;28;20037;-58
2022/12/07 10:49:09;;;;;;;9.38;8.77;;;;;;;;;;5029931;28;20037;-58
2022/12/07 10:51:41;;;;;;;9.95;9.32;;;;;;;;;;5033469;28;20033;-63
2022/12/07 10:54:31;;;;;;;11.48;10.65;;;;;;;;;;5032753;28;20051;-61
2022/12/07 10:57:37;;;;;;;10.73;10.02;;;;;;;;;;5033018;28;20040;-61
2022/12/07 11:00:16;;;;;;;12.15;11.25;;;;;;;;;;5023905;28;20056;-62
2022/12/07 11:03:10;;;;;;;10.98;10.27;;;;;;;;;;5028855;28;20521;-61
2022/12/07 11:05:44;;;;;;;11.07;10.27;;;;;;;;;;5034553;28;20103;-61
2022/12/07 11:08:23;;;;;;;11.55;10.75;;;;;;;;;;5030458;28;20044;-61
2022/12/07 11:11:01;;;;;;;10.98;10.27;;;;;;;;;;5029981;28;20692;-61
2022/12/07 11:13:48;;;;;;;11.38;10.57;;;;;;;;;;5032529;28;20040;-61
2022/12/07 11:16:23;;;;;;;13.00;12.02;;;;;;;;;;5031299;28;20557;-61
2022/12/07 11:19:00;;;;;;;10.77;10.10;;;;;;;;;;5031596;28;20154;-62
2022/12/07 11:21:48;;;;;;;11.38;10.68;;;;;;;;;;5027916;28;20072;-61
2022/12/07 11:24:23;;;;;;;13.32;12.43;;;;;;;;;;5032825;28;20091;-61
2022/12/07 11:27:13;;;;;;;10.50;9.80;;;;;;;;;;5030778;28;20053;-61
2022/12/07 11:29:52;;;;;;;10.48;9.77;;;;;;;;;;5030151;28;20041;-61
2022/12/07 11:32:45;;;;;;;10.52;9.85;;;;;;;;;;5030125;28;20140;-61
2022/12/07 11:35:25;;;;;;;11.88;10.98;;;;;;;;;;5030621;28;20110;-61
2022/12/07 11:37:57;;;;;;;11.45;10.65;;;;;;;;;;5032928;28;20422;-61
2022/12/07 11:40:27;;;;;;;9.68;9.07;;;;;;;;;;5032851;28;20162;-60
2022/12/07 11:43:01;;;;;;;10.68;9.98;;;;;;;;;;5037986;28;20033;-60
2022/12/07 11:45:30;;;;;;;10.45;9.75;;;;;;;;;;5034423;28;20486;-60
2022/12/07 11:48:07;;;;;;;9.20;8.60;;;;;;;;;;5036983;28;20084;-60
2022/12/07 11:50:55;;;;;;;11.07;10.27;;;;;;;;;;5034424;28;20517;-61
2022/12/07 11:53:27;;;;;;;9.90;9.30;;;;;;;;;;5033341;28;20049;-60
2022/12/07 11:55:57;;;;;;;10.70;10.00;;;;;;;;;;5034214;28;20033;-60
2022/12/07 11:58:34;;;;;;;10.40;9.73;;;;;;;;;;5035489;28;20534;-60
2022/12/07 12:01:38;;;;;;;10.50;9.85;;;;;;;;;;5034475;28;20112;-60
2022/12/07 12:04:09;;;;;;;9.23;8.63;;;;;;;;;;5032753;28;20041;-61
2022/12/07 12:06:39;;;;;;;10.27;9.57;;;;;;;;;;5034366;28;20057;-60
2022/12/07 12:09:14;;;;;;;9.93;9.32;;;;;;;;;;5034881;28;20437;-60
2022/12/07 12:12:07;;;;;;;10.60;9.90;;;;;;;;;;5033657;28;20064;-60
2022/12/07 12:15:04;;;;;;;10.15;9.52;;;;;;;;;;5032366;28;20037;-60
2022/12/07 12:17:49;;;;;;;10.23;9.63;;;;;;;;;;5032706;28;20065;-60
2022/12/07 12:20:26;;;;;;;9.38;8.77;;;;;;;;;;5033422;28;20041;-60
2022/12/07 12:23:14;;;;;;;11.18;10.48;;;;;;;;;;5034929;28;20103;-60
2022/12/07 12:25:47;;;;;;;9.27;8.57;;;;;;;;;;5023996;28;20052;-60
2022/12/07 12:28:50;;;;;;;8.63;8.05;;;;;;;;;;5032274;28;20029;-60
2022/12/07 12:31:21;;;;;;;9.20;8.60;;;;;;;;;;5028757;28;20055;-60
2022/12/07 12:33:55;;;;;;;9.52;8.82;;;;;;;;;;5032641;28;20029;-60
2022/12/07 12:36:35;;;;;;;9.57;8.98;;;;;;;;;;5040881;28;20044;-60
2022/12/07 12:39:18;;;;;;;9.23;8.63;;;;;;;;;;5032122;28;20430;-60
2022/12/07 12:44:14;;;;;;;8.88;8.27;;;;;;;;;;5034960;28;20033;-61
2022/12/07 12:46:57;;;;;;;10.63;9.82;;;;;;;;;;5032657;28;20045;-61
2022/12/07 12:49:22;;;;;;;8.95;8.35;;;;;;;;;;5033360;28;20098;-60
2022/12/07 12:51:49;;;;;;;9.50;8.90;;;;;;;;;;5033511;28;20045;-60
2022/12/07 12:54:17;;;;;;;8.20;7.70;;;;;;;;;;5033691;28;20119;-60
2022/12/07 12:56:53;;;;;;;8.85;8.10;;;;;;;;;;5031589;28;20041;-60
2022/12/07 12:59:23;;;;;;;8.82;8.25;;;;;;;;;;5034221;28;20037;-60
2022/12/07 13:01:51;;;;;;;8.77;8.18;;;;;;;;;;5031702;28;20068;-60
2022/12/07 13:04:38;;;;;;;9.55;8.95;;;;;;;;;;5032357;28;20042;-60
2022/12/07 13:07:04;;;;;;;8.10;7.60;;;;;;;;;;5034778;28;20120;-60
2022/12/07 13:10:28;;;;;;;8.35;7.85;;;;;;;;;;5031725;28;20463;-60
2022/12/07 13:21:27;;;;;;;8.65;8.05;;;;;;;;;;5004168;28;20177;-60
2022/12/07 13:23:59;;;;;;;9.40;8.80;;;;;;;;;;5015839;28;20044;-60
2022/12/07 13:26:30;;;;;;;10.02;9.43;;;;;;;;;;5032246;28;20033;-60
2022/12/07 13:29:21;;;;;;;9.00;8.40;;;;;;;;;;5032674;28;20021;-60
2022/12/07 13:31:52;;;;;;;15.57;9.10;;;;;;;;;;5033905;28;20731;-60
2022/12/07 13:34:36;;;;;;;9.55;8.95;;;;;;;;;;5031716;28;20525;-60
2022/12/07 13:37:11;;;;;;;8.00;7.50;;;;;;;;;;5034339;28;20029;-60
2022/12/07 13:39:46;;;;;;;8.50;8.00;;;;;;;;;;5028694;28;20049;-60
2022/12/07 13:42:30;;;;;;;9.32;8.52;;;;;;;;;;5033086;28;20402;-60
2022/12/07 13:44:57;;;;;;;8.20;7.60;;;;;;;;;;5031935;28;20033;-61
2022/12/07 13:47:36;;;;;;;8.20;7.70;;;;;;;;;;5034382;28;20036;-60
2022/12/07 13:50:21;;;;;;;7.97;7.47;;;;;;;;;;5034080;28;20040;-59
2022/12/07 13:52:48;;;;;;;8.10;7.60;;;;;;;;;;5032968;28;20141;-60
2022/12/07 13:55:15;;;;;;;7.82;7.32;;;;;;;;;;5034343;28;20048;-60
2022/12/07 13:57:41;;;;;;;8.57;8.05;;;;;;;;;;5029987;28;20112;-60
2022/12/07 14:00:15;;;;;;;7.90;7.40;;;;;;;;;;5034898;28;20462;-59
2022/12/07 14:03:13;;;;;;;9.00;8.40;;;;;;;;;;5031750;28;20144;-59
2022/12/07 14:05:41;;;;;;;8.27;7.78;;;;;;;;;;5010374;28;20406;-60
2022/12/07 14:08:09;;;;;;;7.90;7.40;;;;;;;;;;5028349;28;20091;-59
2022/12/07 14:10:36;;;;;;;7.95;7.45;;;;;;;;;;5032100;28;20025;-60
2022/12/07 14:13:22;;;;;;;8.95;8.35;;;;;;;;;;5032594;28;20052;-59
2022/12/07 14:15:50;;;;;;;8.15;7.65;;;;;;;;;;5030661;28;20036;-60
2022/12/07 14:18:35;;;;;;;8.43;7.85;;;;;;;;;;5034498;28;20033;-60
2022/12/07 14:21:10;;;;;;;7.90;7.40;;;;;;;;;;5033135;28;20091;-59
2022/12/07 14:23:37;;;;;;;9.23;8.57;;;;;;;;;;5032336;28;20037;-59
2022/12/07 14:26:13;;;;;;;9.32;8.73;;;;;;;;;;5033171;28;20032;-60
2022/12/07 14:28:40;;;;;;;8.15;7.65;;;;;;;;;;5034806;28;20034;-59
2022/12/07 14:31:12;;;;;;;9.40;8.80;;;;;;;;;;5030707;28;20037;-61
2022/12/07 14:33:39;;;;;;;7.93;7.43;;;;;;;;;;5033834;28;20567;-60
2022/12/07 14:36:05;;;;;;;9.07;8.35;;;;;;;;;;5028177;28;20083;-60
2022/12/07 14:38:30;;;;;;;9.40;8.68;;;;;;;;;;5034186;28;20060;-60
2022/12/07 14:41:50;;;;;;;8.07;7.57;;;;;;;;;;5031098;28;20059;-61
2022/12/07 14:43:45;;;;;;;8.48;7.93;;;;;;;;;;5031997;28;20033;-60
2022/12/07 14:46:10;;;;;;;9.15;8.55;;;;;;;;;;5031935;28;20045;-60
2022/12/07 14:48:35;;;;;;;8.43;7.82;;;;;;;;;;5031085;28;20071;-60
2022/12/07 14:51:02;;;;;;;9.40;8.80;;;;;;;;;;5034577;28;20020;-59
2022/12/07 14:53:36;;;;;;;8.13;7.63;;;;;;;;;;5031211;28;20029;-59
2022/12/07 14:56:05;;;;;;;8.40;7.90;;;;;;;;;;5035253;28;20041;-59
2022/12/07 14:58:30;;;;;;;9.05;8.45;;;;;;;;;;5032431;28;20539;-59
2022/12/07 15:00:55;;;;;;;9.35;8.75;;;;;;;;;;5032977;28;20029;-59
2022/12/07 15:03:21;;;;;;;8.88;8.30;;;;;;;;;;5033784;28;20025;-59
2022/12/07 15:05:46;;;;;;;8.90;8.30;;;;;;;;;;5033727;28;20067;-60
2022/12/07 15:08:12;;;;;;;10.25;9.55;;;;;;;;;;5033942;28;20060;-60
2022/12/07 15:10:39;;;;;;;8.82;8.23;;;;;;;;;;5029926;28;20040;-60
2022/12/07 15:15:52;;;;;;;10.50;9.80;;;;;;;;;;5030080;28;20048;-59
2022/12/07 15:18:18;;;;;;;9.25;8.65;;;;;;;;;;5031993;28;20045;-59
2022/12/07 15:20:45;;;;;;;10.10;9.30;;;;;;;;;;5031664;28;20609;-60